sensor_id;sensor_type;location;lat;lon;timestamp;P1;durP1;ratioP1;P2;durP2;ratioP2
58091;SDS011;43896;48.178;11.578;2024-01-15T00:02:23;7.47;;;3.10;;
58091;SDS011;43896;48.178;11.578;2024-01-15T00:04:48;7.55;;;3.40;;
58091;SDS011;43896;48.178;11.578;2024-01-15T00:07:14;8.30;;;3.22;;
58091;SDS011;43896;48.178;11.578;2024-01-15T00:09:39;8.80;;;3.42;;
58091;SDS011;43896;48.178;11.578;2024-01-15T00:12:05;7.93;;;3.40;;
58091;SDS011;43896;48.178;11.578;2024-01-15T00:14:31;8.20;;;3.30;;
58091;SDS011;43896;48.178;11.578;2024-01-15T00:16:56;7.88;;;3.72;;
58091;SDS011;43896;48.178;11.578;2024-01-15T00:19:22;10.27;;;4.00;;
58091;SDS011;43896;48.178;11.578;2024-01-15T00:21:48;10.02;;;3.80;;
58091;SDS011;43896;48.178;11.578;2024-01-15T00:24:14;7.50;;;3.65;;
58091;SDS011;43896;48.178;11.578;2024-01-15T00:26:39;9.15;;;3.80;;
58091;SDS011;43896;48.178;11.578;2024-01-15T00:29:06;9.40;;;4.63;;
58091;SDS011;43896;48.178;11.578;2024-01-15T00:31:32;9.07;;;3.92;;
58091;SDS011;43896;48.178;11.578;2024-01-15T00:33:57;9.07;;;4.10;;
58091;SDS011;43896;48.178;11.578;2024-01-15T00:36:23;9.10;;;3.88;;
58091;SDS011;43896;48.178;11.578;2024-01-15T00:38:48;9.27;;;4.55;;
58091;SDS011;43896;48.178;11.578;2024-01-15T00:41:14;10.10;;;4.30;;
58091;SDS011;43896;48.178;11.578;2024-01-15T00:43:40;9.23;;;4.28;;
58091;SDS011;43896;48.178;11.578;2024-01-15T00:46:05;8.45;;;4.15;;
58091;SDS011;43896;48.178;11.578;2024-01-15T00:48:31;9.45;;;3.95;;
58091;SDS011;43896;48.178;11.578;2024-01-15T00:50:57;10.05;;;4.32;;
58091;SDS011;43896;48.178;11.578;2024-01-15T00:53:22;10.35;;;4.20;;
58091;SDS011;43896;48.178;11.578;2024-01-15T00:55:48;10.15;;;4.35;;
58091;SDS011;43896;48.178;11.578;2024-01-15T00:58:14;11.75;;;5.65;;
58091;SDS011;43896;48.178;11.578;2024-01-15T01:00:39;13.57;;;6.53;;
58091;SDS011;43896;48.178;11.578;2024-01-15T01:03:04;13.02;;;5.95;;
58091;SDS011;43896;48.178;11.578;2024-01-15T01:05:30;13.27;;;6.38;;
58091;SDS011;43896;48.178;11.578;2024-01-15T01:07:55;11.68;;;6.15;;
58091;SDS011;43896;48.178;11.578;2024-01-15T01:10:21;14.90;;;6.32;;
58091;SDS011;43896;48.178;11.578;2024-01-15T01:12:46;14.25;;;6.55;;
58091;SDS011;43896;48.178;11.578;2024-01-15T01:15:11;14.38;;;6.65;;
58091;SDS011;43896;48.178;11.578;2024-01-15T01:17:37;13.80;;;6.75;;
58091;SDS011;43896;48.178;11.578;2024-01-15T01:20:02;15.40;;;6.75;;
58091;SDS011;43896;48.178;11.578;2024-01-15T01:22:31;12.10;;;6.07;;
58091;SDS011;43896;48.178;11.578;2024-01-15T01:24:56;13.35;;;6.63;;
58091;SDS011;43896;48.178;11.578;2024-01-15T01:27:22;14.25;;;6.95;;
58091;SDS011;43896;48.178;11.578;2024-01-15T01:29:47;12.85;;;6.78;;
58091;SDS011;43896;48.178;11.578;2024-01-15T01:32:12;13.27;;;5.80;;
58091;SDS011;43896;48.178;11.578;2024-01-15T01:34:41;13.77;;;6.55;;
58091;SDS011;43896;48.178;11.578;2024-01-15T01:37:09;11.25;;;5.75;;
58091;SDS011;43896;48.178;11.578;2024-01-15T01:39:38;12.57;;;6.65;;
58091;SDS011;43896;48.178;11.578;2024-01-15T01:42:04;11.38;;;5.53;;
58091;SDS011;43896;48.178;11.578;2024-01-15T01:44:29;13.32;;;6.60;;
58091;SDS011;43896;48.178;11.578;2024-01-15T01:46:55;11.95;;;5.45;;
58091;SDS011;43896;48.178;11.578;2024-01-15T01:49:22;10.52;;;4.90;;
58091;SDS011;43896;48.178;11.578;2024-01-15T01:51:48;10.80;;;4.60;;
58091;SDS011;43896;48.178;11.578;2024-01-15T01:54:14;9.88;;;4.55;;
58091;SDS011;43896;48.178;11.578;2024-01-15T01:56:40;10.52;;;4.72;;
58091;SDS011;43896;48.178;11.578;2024-01-15T01:59:07;10.27;;;4.85;;
58091;SDS011;43896;48.178;11.578;2024-01-15T02:01:34;10.55;;;5.07;;
58091;SDS011;43896;48.178;11.578;2024-01-15T02:04:00;10.52;;;5.43;;
58091;SDS011;43896;48.178;11.578;2024-01-15T02:06:26;10.40;;;4.45;;
58091;SDS011;43896;48.178;11.578;2024-01-15T02:08:52;10.63;;;4.95;;
58091;SDS011;43896;48.178;11.578;2024-01-15T02:11:17;11.68;;;5.32;;
58091;SDS011;43896;48.178;11.578;2024-01-15T02:13:43;10.38;;;5.05;;
58091;SDS011;43896;48.178;11.578;2024-01-15T02:16:08;12.70;;;4.80;;
58091;SDS011;43896;48.178;11.578;2024-01-15T02:18:40;10.57;;;4.82;;
58091;SDS011;43896;48.178;11.578;2024-01-15T02:21:06;11.68;;;5.43;;
58091;SDS011;43896;48.178;11.578;2024-01-15T02:23:32;10.98;;;5.10;;
58091;SDS011;43896;48.178;11.578;2024-01-15T02:25:57;11.18;;;4.90;;
58091;SDS011;43896;48.178;11.578;2024-01-15T02:28:23;10.95;;;5.38;;
58091;SDS011;43896;48.178;11.578;2024-01-15T02:30:48;11.20;;;4.85;;
58091;SDS011;43896;48.178;11.578;2024-01-15T02:33:14;11.10;;;4.82;;
58091;SDS011;43896;48.178;11.578;2024-01-15T02:35:39;12.27;;;5.55;;
58091;SDS011;43896;48.178;11.578;2024-01-15T02:38:05;12.57;;;5.15;;
58091;SDS011;43896;48.178;11.578;2024-01-15T02:40:31;11.80;;;4.82;;
58091;SDS011;43896;48.178;11.578;2024-01-15T02:42:57;11.23;;;5.20;;
58091;SDS011;43896;48.178;11.578;2024-01-15T02:45:22;14.07;;;5.82;;
58091;SDS011;43896;48.178;11.578;2024-01-15T02:47:48;11.57;;;5.18;;
58091;SDS011;43896;48.178;11.578;2024-01-15T02:50:14;12.10;;;5.28;;
58091;SDS011;43896;48.178;11.578;2024-01-15T02:52:39;11.90;;;5.65;;
58091;SDS011;43896;48.178;11.578;2024-01-15T02:55:06;11.00;;;5.10;;
58091;SDS011;43896;48.178;11.578;2024-01-15T02:57:32;12.05;;;5.07;;
58091;SDS011;43896;48.178;11.578;2024-01-15T02:59:58;12.30;;;5.10;;
58091;SDS011;43896;48.178;11.578;2024-01-15T03:02:23;12.90;;;5.53;;
58091;SDS011;43896;48.178;11.578;2024-01-15T03:04:48;11.82;;;5.53;;
58091;SDS011;43896;48.178;11.578;2024-01-15T03:07:14;11.02;;;5.00;;
58091;SDS011;43896;48.178;11.578;2024-01-15T03:09:39;12.90;;;5.45;;
58091;SDS011;43896;48.178;11.578;2024-01-15T03:12:05;11.13;;;4.88;;
58091;SDS011;43896;48.178;11.578;2024-01-15T03:14:31;12.88;;;6.15;;
58091;SDS011;43896;48.178;11.578;2024-01-15T03:16:56;10.85;;;4.82;;
58091;SDS011;43896;48.178;11.578;2024-01-15T03:19:22;11.73;;;5.07;;
58091;SDS011;43896;48.178;11.578;2024-01-15T03:21:47;12.43;;;5.22;;
58091;SDS011;43896;48.178;11.578;2024-01-15T03:24:13;12.82;;;5.32;;
58091;SDS011;43896;48.178;11.578;2024-01-15T03:26:38;12.15;;;5.10;;
58091;SDS011;43896;48.178;11.578;2024-01-15T03:29:04;10.98;;;4.80;;
58091;SDS011;43896;48.178;11.578;2024-01-15T03:31:29;10.80;;;4.95;;
58091;SDS011;43896;48.178;11.578;2024-01-15T03:33:55;10.85;;;4.93;;
58091;SDS011;43896;48.178;11.578;2024-01-15T03:36:20;11.43;;;5.05;;
58091;SDS011;43896;48.178;11.578;2024-01-15T03:38:46;11.18;;;4.80;;
58091;SDS011;43896;48.178;11.578;2024-01-15T03:41:11;10.35;;;4.72;;
58091;SDS011;43896;48.178;11.578;2024-01-15T03:43:37;11.00;;;5.15;;
58091;SDS011;43896;48.178;11.578;2024-01-15T03:46:03;11.02;;;5.00;;
58091;SDS011;43896;48.178;11.578;2024-01-15T03:48:29;12.77;;;5.03;;
58091;SDS011;43896;48.178;11.578;2024-01-15T03:50:55;11.48;;;5.20;;
58091;SDS011;43896;48.178;11.578;2024-01-15T03:53:20;12.35;;;4.65;;
58091;SDS011;43896;48.178;11.578;2024-01-15T03:55:46;11.27;;;5.15;;
58091;SDS011;43896;48.178;11.578;2024-01-15T03:58:11;12.52;;;5.07;;
58091;SDS011;43896;48.178;11.578;2024-01-15T04:00:37;12.57;;;4.78;;
58091;SDS011;43896;48.178;11.578;2024-01-15T04:03:02;11.27;;;5.03;;
58091;SDS011;43896;48.178;11.578;2024-01-15T04:05:27;13.05;;;4.90;;
58091;SDS011;43896;48.178;11.578;2024-01-15T04:07:53;9.77;;;4.82;;
58091;SDS011;43896;48.178;11.578;2024-01-15T04:10:19;10.40;;;4.60;;
58091;SDS011;43896;48.178;11.578;2024-01-15T04:12:44;10.77;;;4.93;;
58091;SDS011;43896;48.178;11.578;2024-01-15T04:15:11;12.32;;;4.78;;
58091;SDS011;43896;48.178;11.578;2024-01-15T04:17:37;10.93;;;4.70;;
58091;SDS011;43896;48.178;11.578;2024-01-15T04:20:03;11.93;;;5.00;;
58091;SDS011;43896;48.178;11.578;2024-01-15T04:22:29;11.32;;;4.85;;
58091;SDS011;43896;48.178;11.578;2024-01-15T04:24:54;12.00;;;5.38;;
58091;SDS011;43896;48.178;11.578;2024-01-15T04:27:19;11.48;;;4.90;;
58091;SDS011;43896;48.178;11.578;2024-01-15T04:29:45;11.88;;;5.18;;
58091;SDS011;43896;48.178;11.578;2024-01-15T04:32:10;11.88;;;4.80;;
58091;SDS011;43896;48.178;11.578;2024-01-15T04:34:36;11.30;;;5.13;;
58091;SDS011;43896;48.178;11.578;2024-01-15T04:37:01;11.77;;;4.93;;
58091;SDS011;43896;48.178;11.578;2024-01-15T04:39:27;11.90;;;4.70;;
58091;SDS011;43896;48.178;11.578;2024-01-15T04:41:52;11.57;;;4.95;;
58091;SDS011;43896;48.178;11.578;2024-01-15T04:44:18;12.80;;;5.63;;
58091;SDS011;43896;48.178;11.578;2024-01-15T04:46:43;10.27;;;4.90;;
58091;SDS011;43896;48.178;11.578;2024-01-15T04:49:09;11.82;;;5.22;;
58091;SDS011;43896;48.178;11.578;2024-01-15T04:51:34;11.13;;;5.25;;
58091;SDS011;43896;48.178;11.578;2024-01-15T04:54:00;12.57;;;4.68;;
58091;SDS011;43896;48.178;11.578;2024-01-15T04:56:26;11.60;;;4.63;;
58091;SDS011;43896;48.178;11.578;2024-01-15T04:58:51;11.38;;;4.40;;
58091;SDS011;43896;48.178;11.578;2024-01-15T05:01:17;14.30;;;4.80;;
58091;SDS011;43896;48.178;11.578;2024-01-15T05:03:42;11.57;;;4.88;;
58091;SDS011;43896;48.178;11.578;2024-01-15T05:06:08;10.07;;;4.47;;
58091;SDS011;43896;48.178;11.578;2024-01-15T05:08:33;8.82;;;4.32;;
58091;SDS011;43896;48.178;11.578;2024-01-15T05:10:58;12.40;;;4.85;;
58091;SDS011;43896;48.178;11.578;2024-01-15T05:13:24;9.18;;;4.15;;
58091;SDS011;43896;48.178;11.578;2024-01-15T05:15:49;12.73;;;4.70;;
58091;SDS011;43896;48.178;11.578;2024-01-15T05:18:15;9.55;;;4.15;;
58091;SDS011;43896;48.178;11.578;2024-01-15T05:20:41;10.77;;;4.35;;
58091;SDS011;43896;48.178;11.578;2024-01-15T05:23:07;11.35;;;4.50;;
58091;SDS011;43896;48.178;11.578;2024-01-15T05:25:32;9.98;;;4.40;;
58091;SDS011;43896;48.178;11.578;2024-01-15T05:27:58;10.30;;;4.78;;
58091;SDS011;43896;48.178;11.578;2024-01-15T05:30:24;8.90;;;4.22;;
58091;SDS011;43896;48.178;11.578;2024-01-15T05:32:49;8.88;;;3.95;;
58091;SDS011;43896;48.178;11.578;2024-01-15T05:35:14;11.10;;;4.20;;
58091;SDS011;43896;48.178;11.578;2024-01-15T05:37:43;9.48;;;4.10;;
58091;SDS011;43896;48.178;11.578;2024-01-15T05:40:10;9.45;;;4.45;;
58091;SDS011;43896;48.178;11.578;2024-01-15T05:42:36;9.60;;;4.45;;
58091;SDS011;43896;48.178;11.578;2024-01-15T05:45:01;10.63;;;4.05;;
58091;SDS011;43896;48.178;11.578;2024-01-15T05:47:29;10.98;;;4.13;;
58091;SDS011;43896;48.178;11.578;2024-01-15T05:49:55;10.73;;;4.10;;
58091;SDS011;43896;48.178;11.578;2024-01-15T05:52:22;9.93;;;4.35;;
58091;SDS011;43896;48.178;11.578;2024-01-15T05:54:47;10.60;;;4.38;;
58091;SDS011;43896;48.178;11.578;2024-01-15T05:57:13;10.80;;;4.78;;
58091;SDS011;43896;48.178;11.578;2024-01-15T05:59:38;10.98;;;3.85;;
58091;SDS011;43896;48.178;11.578;2024-01-15T06:02:04;8.32;;;4.00;;
58091;SDS011;43896;48.178;11.578;2024-01-15T06:04:29;8.73;;;3.70;;
58091;SDS011;43896;48.178;11.578;2024-01-15T06:06:55;10.65;;;5.10;;
58091;SDS011;43896;48.178;11.578;2024-01-15T06:09:20;8.93;;;3.90;;
58091;SDS011;43896;48.178;11.578;2024-01-15T06:11:45;9.25;;;3.58;;
58091;SDS011;43896;48.178;11.578;2024-01-15T06:14:11;10.75;;;4.18;;
58091;SDS011;43896;48.178;11.578;2024-01-15T06:16:36;9.65;;;4.35;;
58091;SDS011;43896;48.178;11.578;2024-01-15T06:19:02;11.25;;;4.00;;
58091;SDS011;43896;48.178;11.578;2024-01-15T06:21:28;10.20;;;4.40;;
58091;SDS011;43896;48.178;11.578;2024-01-15T06:23:53;10.20;;;3.58;;
58091;SDS011;43896;48.178;11.578;2024-01-15T06:26:19;8.95;;;3.78;;
58091;SDS011;43896;48.178;11.578;2024-01-15T06:28:44;8.23;;;3.38;;
58091;SDS011;43896;48.178;11.578;2024-01-15T06:31:09;8.63;;;3.42;;
58091;SDS011;43896;48.178;11.578;2024-01-15T06:33:35;10.25;;;3.40;;
58091;SDS011;43896;48.178;11.578;2024-01-15T06:36:00;7.90;;;3.05;;
58091;SDS011;43896;48.178;11.578;2024-01-15T06:38:25;8.85;;;3.67;;
58091;SDS011;43896;48.178;11.578;2024-01-15T06:40:51;8.02;;;3.42;;
58091;SDS011;43896;48.178;11.578;2024-01-15T06:43:17;10.52;;;3.42;;
58091;SDS011;43896;48.178;11.578;2024-01-15T06:45:44;8.48;;;3.45;;
58091;SDS011;43896;48.178;11.578;2024-01-15T06:48:09;8.65;;;3.58;;
58091;SDS011;43896;48.178;11.578;2024-01-15T06:50:37;9.82;;;3.92;;
58091;SDS011;43896;48.178;11.578;2024-01-15T06:53:03;8.02;;;3.58;;
58091;SDS011;43896;48.178;11.578;2024-01-15T06:55:28;8.38;;;3.80;;
58091;SDS011;43896;48.178;11.578;2024-01-15T06:57:54;8.23;;;3.63;;
58091;SDS011;43896;48.178;11.578;2024-01-15T07:00:19;7.20;;;3.42;;
58091;SDS011;43896;48.178;11.578;2024-01-15T07:02:45;8.30;;;3.83;;
58091;SDS011;43896;48.178;11.578;2024-01-15T07:05:10;7.60;;;3.47;;
58091;SDS011;43896;48.178;11.578;2024-01-15T07:07:36;7.38;;;3.17;;
58091;SDS011;43896;48.178;11.578;2024-01-15T07:10:02;8.20;;;3.60;;
58091;SDS011;43896;48.178;11.578;2024-01-15T07:12:28;8.65;;;3.75;;
58091;SDS011;43896;48.178;11.578;2024-01-15T07:14:54;7.45;;;3.50;;
58091;SDS011;43896;48.178;11.578;2024-01-15T07:17:20;8.05;;;3.35;;
58091;SDS011;43896;48.178;11.578;2024-01-15T07:19:46;8.40;;;3.50;;
58091;SDS011;43896;48.178;11.578;2024-01-15T07:22:11;9.55;;;3.90;;
58091;SDS011;43896;48.178;11.578;2024-01-15T07:24:37;8.38;;;3.72;;
58091;SDS011;43896;48.178;11.578;2024-01-15T07:27:02;8.30;;;3.40;;
58091;SDS011;43896;48.178;11.578;2024-01-15T07:29:29;8.32;;;3.45;;
58091;SDS011;43896;48.178;11.578;2024-01-15T07:31:55;9.43;;;4.00;;
58091;SDS011;43896;48.178;11.578;2024-01-15T07:34:20;9.82;;;4.22;;
58091;SDS011;43896;48.178;11.578;2024-01-15T07:36:47;7.60;;;3.63;;
58091;SDS011;43896;48.178;11.578;2024-01-15T07:39:12;7.03;;;3.53;;
58091;SDS011;43896;48.178;11.578;2024-01-15T07:41:38;7.63;;;3.40;;
58091;SDS011;43896;48.178;11.578;2024-01-15T07:44:04;8.35;;;3.80;;
58091;SDS011;43896;48.178;11.578;2024-01-15T07:46:30;9.23;;;4.13;;
58091;SDS011;43896;48.178;11.578;2024-01-15T07:48:55;8.85;;;3.80;;
58091;SDS011;43896;48.178;11.578;2024-01-15T07:51:23;9.50;;;3.85;;
58091;SDS011;43896;48.178;11.578;2024-01-15T07:53:50;8.02;;;4.05;;
58091;SDS011;43896;48.178;11.578;2024-01-15T07:56:15;9.13;;;4.00;;
58091;SDS011;43896;48.178;11.578;2024-01-15T07:58:41;9.75;;;4.00;;
58091;SDS011;43896;48.178;11.578;2024-01-15T08:01:07;8.65;;;4.28;;
58091;SDS011;43896;48.178;11.578;2024-01-15T08:03:32;10.38;;;4.35;;
58091;SDS011;43896;48.178;11.578;2024-01-15T08:05:58;9.57;;;4.30;;
58091;SDS011;43896;48.178;11.578;2024-01-15T08:08:24;9.05;;;4.25;;
58091;SDS011;43896;48.178;11.578;2024-01-15T08:10:51;8.73;;;3.85;;
58091;SDS011;43896;48.178;11.578;2024-01-15T08:13:17;10.13;;;4.22;;
58091;SDS011;43896;48.178;11.578;2024-01-15T08:15:42;9.20;;;3.90;;
58091;SDS011;43896;48.178;11.578;2024-01-15T08:18:08;9.40;;;4.03;;
58091;SDS011;43896;48.178;11.578;2024-01-15T08:20:34;10.18;;;4.10;;
58091;SDS011;43896;48.178;11.578;2024-01-15T08:22:59;11.30;;;3.92;;
58091;SDS011;43896;48.178;11.578;2024-01-15T08:25:24;9.27;;;4.47;;
58091;SDS011;43896;48.178;11.578;2024-01-15T08:27:51;8.95;;;3.92;;
58091;SDS011;43896;48.178;11.578;2024-01-15T08:30:16;9.20;;;3.70;;
58091;SDS011;43896;48.178;11.578;2024-01-15T08:32:43;9.07;;;3.85;;
58091;SDS011;43896;48.178;11.578;2024-01-15T08:35:09;8.75;;;3.90;;
58091;SDS011;43896;48.178;11.578;2024-01-15T08:37:35;7.93;;;3.65;;
58091;SDS011;43896;48.178;11.578;2024-01-15T08:40:00;9.68;;;4.18;;
58091;SDS011;43896;48.178;11.578;2024-01-15T08:42:25;8.75;;;3.83;;
58091;SDS011;43896;48.178;11.578;2024-01-15T08:44:51;8.50;;;3.63;;
58091;SDS011;43896;48.178;11.578;2024-01-15T08:47:16;7.43;;;3.40;;
58091;SDS011;43896;48.178;11.578;2024-01-15T08:49:42;7.95;;;3.35;;
58091;SDS011;43896;48.178;11.578;2024-01-15T08:52:09;8.32;;;3.55;;
58091;SDS011;43896;48.178;11.578;2024-01-15T08:54:35;8.82;;;3.80;;
58091;SDS011;43896;48.178;11.578;2024-01-15T08:57:00;9.73;;;4.03;;
58091;SDS011;43896;48.178;11.578;2024-01-15T08:59:26;8.70;;;4.15;;
58091;SDS011;43896;48.178;11.578;2024-01-15T09:01:52;9.00;;;3.67;;
58091;SDS011;43896;48.178;11.578;2024-01-15T09:04:18;8.35;;;3.58;;
58091;SDS011;43896;48.178;11.578;2024-01-15T09:06:45;8.98;;;3.80;;
58091;SDS011;43896;48.178;11.578;2024-01-15T09:09:14;8.93;;;3.97;;
58091;SDS011;43896;48.178;11.578;2024-01-15T09:11:40;9.70;;;4.03;;
58091;SDS011;43896;48.178;11.578;2024-01-15T09:14:06;10.38;;;3.75;;
58091;SDS011;43896;48.178;11.578;2024-01-15T09:16:31;8.40;;;3.75;;
58091;SDS011;43896;48.178;11.578;2024-01-15T09:18:57;9.32;;;3.95;;
58091;SDS011;43896;48.178;11.578;2024-01-15T09:21:22;9.82;;;3.95;;
58091;SDS011;43896;48.178;11.578;2024-01-15T09:23:49;10.55;;;4.13;;
58091;SDS011;43896;48.178;11.578;2024-01-15T09:26:15;7.65;;;3.75;;
58091;SDS011;43896;48.178;11.578;2024-01-15T09:28:41;12.15;;;4.60;;
58091;SDS011;43896;48.178;11.578;2024-01-15T09:31:06;10.38;;;4.57;;
58091;SDS011;43896;48.178;11.578;2024-01-15T09:33:32;8.90;;;3.97;;
58091;SDS011;43896;48.178;11.578;2024-01-15T09:36:00;9.68;;;4.03;;
58091;SDS011;43896;48.178;11.578;2024-01-15T09:38:26;11.30;;;3.78;;
58091;SDS011;43896;48.178;11.578;2024-01-15T09:40:52;8.13;;;3.53;;
58091;SDS011;43896;48.178;11.578;2024-01-15T09:43:17;9.00;;;3.88;;
58091;SDS011;43896;48.178;11.578;2024-01-15T09:45:43;9.00;;;3.85;;
58091;SDS011;43896;48.178;11.578;2024-01-15T09:48:09;8.50;;;3.42;;
58091;SDS011;43896;48.178;11.578;2024-01-15T09:50:34;8.60;;;3.90;;
58091;SDS011;43896;48.178;11.578;2024-01-15T09:53:00;9.45;;;3.83;;
58091;SDS011;43896;48.178;11.578;2024-01-15T09:55:26;8.73;;;3.20;;
58091;SDS011;43896;48.178;11.578;2024-01-15T09:57:52;9.52;;;3.83;;
58091;SDS011;43896;48.178;11.578;2024-01-15T10:00:20;7.20;;;3.17;;
58091;SDS011;43896;48.178;11.578;2024-01-15T10:02:46;8.70;;;3.38;;
58091;SDS011;43896;48.178;11.578;2024-01-15T10:05:11;7.93;;;3.50;;
58091;SDS011;43896;48.178;11.578;2024-01-15T10:07:37;7.95;;;3.58;;
58091;SDS011;43896;48.178;11.578;2024-01-15T10:10:03;8.93;;;3.47;;
58091;SDS011;43896;48.178;11.578;2024-01-15T10:12:29;8.85;;;3.00;;
58091;SDS011;43896;48.178;11.578;2024-01-15T10:14:55;7.45;;;2.88;;
58091;SDS011;43896;48.178;11.578;2024-01-15T10:17:21;8.90;;;3.05;;
58091;SDS011;43896;48.178;11.578;2024-01-15T10:19:46;6.18;;;2.90;;
58091;SDS011;43896;48.178;11.578;2024-01-15T10:22:13;6.63;;;2.72;;
58091;SDS011;43896;48.178;11.578;2024-01-15T10:24:40;9.73;;;3.00;;
58091;SDS011;43896;48.178;11.578;2024-01-15T10:27:06;7.57;;;2.92;;
58091;SDS011;43896;48.178;11.578;2024-01-15T10:29:32;7.20;;;3.05;;
58091;SDS011;43896;48.178;11.578;2024-01-15T10:31:58;10.25;;;2.90;;
58091;SDS011;43896;48.178;11.578;2024-01-15T10:34:24;7.75;;;2.97;;
58091;SDS011;43896;48.178;11.578;2024-01-15T10:36:50;6.30;;;2.78;;
58091;SDS011;43896;48.178;11.578;2024-01-15T10:39:20;6.95;;;2.70;;
58091;SDS011;43896;48.178;11.578;2024-01-15T10:41:46;6.97;;;2.88;;
58091;SDS011;43896;48.178;11.578;2024-01-15T10:44:12;6.40;;;2.53;;
58091;SDS011;43896;48.178;11.578;2024-01-15T10:46:37;6.90;;;2.85;;
58091;SDS011;43896;48.178;11.578;2024-01-15T10:49:04;7.43;;;2.70;;
58091;SDS011;43896;48.178;11.578;2024-01-15T10:51:29;6.20;;;2.60;;
58091;SDS011;43896;48.178;11.578;2024-01-15T10:53:56;9.48;;;2.97;;
58091;SDS011;43896;48.178;11.578;2024-01-15T10:56:22;7.97;;;2.83;;
58091;SDS011;43896;48.178;11.578;2024-01-15T10:58:49;6.32;;;2.72;;
58091;SDS011;43896;48.178;11.578;2024-01-15T11:01:15;7.28;;;3.03;;
58091;SDS011;43896;48.178;11.578;2024-01-15T11:03:42;6.07;;;2.75;;
58091;SDS011;43896;48.178;11.578;2024-01-15T11:06:17;7.60;;;2.90;;
58091;SDS011;43896;48.178;11.578;2024-01-15T11:08:45;8.15;;;3.00;;
58091;SDS011;43896;48.178;11.578;2024-01-15T11:11:13;10.68;;;3.10;;
58091;SDS011;43896;48.178;11.578;2024-01-15T11:16:07;8.43;;;4.20;;
58091;SDS011;43896;48.178;11.578;2024-01-15T11:18:37;7.38;;;3.13;;
58091;SDS011;43896;48.178;11.578;2024-01-15T11:23:50;7.80;;;2.92;;
58091;SDS011;43896;48.178;11.578;2024-01-15T11:26:27;8.75;;;3.03;;
58091;SDS011;43896;48.178;11.578;2024-01-15T11:28:59;7.60;;;3.40;;
58091;SDS011;43896;48.178;11.578;2024-01-15T11:34:03;7.32;;;3.10;;
58091;SDS011;43896;48.178;11.578;2024-01-15T11:37:00;8.20;;;3.17;;
58091;SDS011;43896;48.178;11.578;2024-01-15T11:42:00;7.82;;;3.20;;
58091;SDS011;43896;48.178;11.578;2024-01-15T11:44:27;7.50;;;2.97;;
58091;SDS011;43896;48.178;11.578;2024-01-15T11:46:57;7.90;;;2.80;;
58091;SDS011;43896;48.178;11.578;2024-01-15T11:52:22;6.18;;;2.58;;
58091;SDS011;43896;48.178;11.578;2024-01-15T11:55:01;8.18;;;3.00;;
58091;SDS011;43896;48.178;11.578;2024-01-15T11:57:42;7.00;;;2.60;;
58091;SDS011;43896;48.178;11.578;2024-01-15T12:00:11;6.28;;;3.00;;
58091;SDS011;43896;48.178;11.578;2024-01-15T12:02:44;6.45;;;2.50;;
58091;SDS011;43896;48.178;11.578;2024-01-15T12:05:11;6.95;;;2.80;;
58091;SDS011;43896;48.178;11.578;2024-01-15T12:07:45;8.18;;;2.70;;
58091;SDS011;43896;48.178;11.578;2024-01-15T12:13:00;7.88;;;2.65;;
58091;SDS011;43896;48.178;11.578;2024-01-15T12:15:30;6.85;;;2.90;;
58091;SDS011;43896;48.178;11.578;2024-01-15T12:17:57;5.97;;;2.70;;
58091;SDS011;43896;48.178;11.578;2024-01-15T12:20:28;5.75;;;2.40;;
58091;SDS011;43896;48.178;11.578;2024-01-15T12:22:54;6.43;;;2.55;;
58091;SDS011;43896;48.178;11.578;2024-01-15T12:25:20;7.72;;;3.00;;
58091;SDS011;43896;48.178;11.578;2024-01-15T12:27:46;4.85;;;2.08;;
58091;SDS011;43896;48.178;11.578;2024-01-15T12:30:15;4.97;;;2.28;;
58091;SDS011;43896;48.178;11.578;2024-01-15T12:32:50;4.38;;;2.15;;
58091;SDS011;43896;48.178;11.578;2024-01-15T12:35:16;6.63;;;2.60;;
58091;SDS011;43896;48.178;11.578;2024-01-15T12:37:41;4.88;;;2.05;;
58091;SDS011;43896;48.178;11.578;2024-01-15T12:40:08;5.70;;;2.10;;
58091;SDS011;43896;48.178;11.578;2024-01-15T12:42:41;5.75;;;2.10;;
58091;SDS011;43896;48.178;11.578;2024-01-15T12:45:06;5.82;;;2.38;;
58091;SDS011;43896;48.178;11.578;2024-01-15T12:47:33;4.75;;;1.80;;
58091;SDS011;43896;48.178;11.578;2024-01-15T12:49:59;5.05;;;1.67;;
58091;SDS011;43896;48.178;11.578;2024-01-15T12:52:26;6.40;;;1.90;;
58091;SDS011;43896;48.178;11.578;2024-01-15T12:54:52;5.50;;;1.75;;
58091;SDS011;43896;48.178;11.578;2024-01-15T12:57:18;5.32;;;1.98;;
58091;SDS011;43896;48.178;11.578;2024-01-15T12:59:44;4.10;;;1.70;;
58091;SDS011;43896;48.178;11.578;2024-01-15T13:02:15;5.28;;;2.17;;
58091;SDS011;43896;48.178;11.578;2024-01-15T13:04:41;5.10;;;2.00;;
58091;SDS011;43896;48.178;11.578;2024-01-15T13:07:07;5.85;;;1.83;;
58091;SDS011;43896;48.178;11.578;2024-01-15T13:09:33;5.35;;;2.25;;
58091;SDS011;43896;48.178;11.578;2024-01-15T13:11:59;5.60;;;2.25;;
58091;SDS011;43896;48.178;11.578;2024-01-15T13:14:26;6.70;;;2.50;;
58091;SDS011;43896;48.178;11.578;2024-01-15T13:16:51;6.15;;;2.35;;
58091;SDS011;43896;48.178;11.578;2024-01-15T13:19:18;6.15;;;2.47;;
58091;SDS011;43896;48.178;11.578;2024-01-15T13:21:44;7.03;;;2.35;;
58091;SDS011;43896;48.178;11.578;2024-01-15T13:24:09;5.70;;;2.42;;
58091;SDS011;43896;48.178;11.578;2024-01-15T13:26:36;6.85;;;2.13;;
58091;SDS011;43896;48.178;11.578;2024-01-15T13:29:03;6.57;;;2.50;;
58091;SDS011;43896;48.178;11.578;2024-01-15T13:31:32;8.90;;;2.53;;
58091;SDS011;43896;48.178;11.578;2024-01-15T13:33:58;9.48;;;2.67;;
58091;SDS011;43896;48.178;11.578;2024-01-15T13:36:25;6.20;;;2.90;;
58091;SDS011;43896;48.178;11.578;2024-01-15T13:38:51;7.45;;;2.78;;
58091;SDS011;43896;48.178;11.578;2024-01-15T13:41:18;7.13;;;2.70;;
58091;SDS011;43896;48.178;11.578;2024-01-15T13:43:45;6.28;;;3.00;;
58091;SDS011;43896;48.178;11.578;2024-01-15T13:46:11;8.40;;;2.90;;
58091;SDS011;43896;48.178;11.578;2024-01-15T13:48:36;7.18;;;2.90;;
58091;SDS011;43896;48.178;11.578;2024-01-15T13:51:02;7.25;;;2.90;;
58091;SDS011;43896;48.178;11.578;2024-01-15T13:53:27;7.63;;;2.97;;
58091;SDS011;43896;48.178;11.578;2024-01-15T13:55:52;7.28;;;3.28;;
58091;SDS011;43896;48.178;11.578;2024-01-15T13:58:18;8.93;;;3.28;;
58091;SDS011;43896;48.178;11.578;2024-01-15T14:00:43;7.32;;;2.80;;
58091;SDS011;43896;48.178;11.578;2024-01-15T14:03:09;6.35;;;2.53;;
58091;SDS011;43896;48.178;11.578;2024-01-15T14:05:34;5.93;;;2.55;;
58091;SDS011;43896;48.178;11.578;2024-01-15T14:08:00;7.32;;;3.10;;
58091;SDS011;43896;48.178;11.578;2024-01-15T14:10:25;9.30;;;3.00;;
58091;SDS011;43896;48.178;11.578;2024-01-15T14:12:50;7.45;;;3.33;;
58091;SDS011;43896;48.178;11.578;2024-01-15T14:15:16;7.75;;;3.28;;
58091;SDS011;43896;48.178;11.578;2024-01-15T14:17:41;8.18;;;3.78;;
58091;SDS011;43896;48.178;11.578;2024-01-15T14:20:07;7.30;;;3.10;;
58091;SDS011;43896;48.178;11.578;2024-01-15T14:22:34;7.28;;;3.10;;
58091;SDS011;43896;48.178;11.578;2024-01-15T14:24:59;8.38;;;3.00;;
58091;SDS011;43896;48.178;11.578;2024-01-15T14:27:26;5.85;;;2.67;;
58091;SDS011;43896;48.178;11.578;2024-01-15T14:29:51;7.50;;;2.80;;
58091;SDS011;43896;48.178;11.578;2024-01-15T14:32:16;5.95;;;2.78;;
58091;SDS011;43896;48.178;11.578;2024-01-15T14:34:42;6.43;;;3.00;;
58091;SDS011;43896;48.178;11.578;2024-01-15T14:37:08;8.25;;;3.17;;
58091;SDS011;43896;48.178;11.578;2024-01-15T14:39:33;7.88;;;2.55;;